Airfield :
LOGIN :

Register | Disclaimer

   EN    FR    IT 

 










Legend :    VFR   Marginal VFR   IFR   Intensive IFR   Very Intensive IFR
Visi :
Ceiling :
>= 8 km
>= 3000ft
5 to 8 km
1000 to 3000 ft
1500m to 5 km
500 to 1000 ft
800 to 1500m
200 to 500 ft
< 800m
< 200 ft
Symbols :   Thunderstorms  Fog  Heavy snow  Heavy precipitations  Wind > 20 kt
SIGMETs :     Misc.  Thunderstorms  Icing  Turbulence  Mountain Waves  Volcanic Ashes






- Airport Elevation : 17 ft
- IATA code : STA


EKVJ - Stauning

CURRENT METAR :
  • 070950Z 22013G24KT 9999 SHRA BKN012 SCT020TCU 15/13 Q1016

EXPIRED METARs :
  • 070920Z 22014G24KT 7000 SHRA SCT012 SCT020TCU BKN060 15/13 Q1016
  • 070850Z 22015KT 9999 VCSH FEW020TCU BKN060 15/13 Q1016
  • 070750Z 21016KT 9999 -SHRA SCT020TCU BKN050 14/13 Q1017

TAF TAF EKVJ
Valid from the 07 at 09:00 until the 07 at 15:00 UTC


070859Z 0709/0715 21018KT 9999 BKN020
TEMPO 0709/0715 22020G32KT BKN012 SCT020TCU



MET'MAP, your aeronautical weather chart ! - Copyright ORBIFLY December 2007 - Disclaimer

ORBIFLY MET'MAP TEAM :

Programming & Development : Alexandra Zaïnal
Original concept : Baudouin d'Aumeries
Technical & hardware support : Manuel Goepfert
Assistance : Marc-Olivier Méhu




SOURCES & CREDITS :

   NOAA